createdAt,value
2022-10-06T00:00:51.056Z,2.40
2022-10-06T00:03:26.564Z,3.50
2022-10-06T00:05:59.531Z,3.63
2022-10-06T00:08:27.491Z,8.73
2022-10-06T00:10:55.866Z,6.83
2022-10-06T00:13:24.115Z,3.63
2022-10-06T00:15:51.723Z,3.50
2022-10-06T00:18:19.310Z,4.63
2022-10-06T00:20:46.763Z,3.33
2022-10-06T00:23:14.207Z,6.87
2022-10-06T00:25:43.063Z,2.40
2022-10-06T00:28:10.760Z,3.73
2022-10-06T00:30:38.267Z,3.17
2022-10-06T00:33:05.904Z,6.10
2022-10-06T00:35:34.534Z,3.77
2022-10-06T00:38:02.317Z,4.73
2022-10-06T00:40:30.184Z,3.30
2022-10-06T00:42:57.642Z,5.03
2022-10-06T00:45:44.514Z,4.10
2022-10-06T00:48:19.451Z,4.20
2022-10-06T00:50:47.309Z,6.33
2022-10-06T00:53:15.435Z,7.07
2022-10-06T00:55:42.899Z,3.17
2022-10-06T00:58:10.722Z,4.73
2022-10-06T01:00:38.503Z,5.70
2022-10-06T01:03:06.006Z,6.17
2022-10-06T01:05:41.222Z,5.23
2022-10-06T01:08:09.208Z,7.10
2022-10-06T01:10:36.711Z,4.30
2022-10-06T01:13:04.327Z,6.33
2022-10-06T01:15:31.900Z,4.33
2022-10-06T01:18:05.042Z,3.37
2022-10-06T01:20:32.782Z,9.17
2022-10-06T01:23:02.567Z,3.93
2022-10-06T01:25:30.183Z,3.33
2022-10-06T01:27:58.055Z,5.40
2022-10-06T01:30:27.667Z,5.57
2022-10-06T01:32:55.558Z,5.33
2022-10-06T01:35:23.070Z,5.00
2022-10-06T01:37:50.547Z,8.87
2022-10-06T01:40:18.051Z,5.90
2022-10-06T01:42:45.646Z,7.53
2022-10-06T01:45:13.067Z,3.80
2022-10-06T01:47:40.557Z,10.03
2022-10-06T01:50:08.271Z,4.17
2022-10-06T01:52:36.202Z,6.90
2022-10-06T01:55:04.505Z,6.53
2022-10-06T01:57:38.506Z,5.13
2022-10-06T02:00:06.185Z,8.47
2022-10-06T02:02:33.615Z,6.43
2022-10-06T02:05:01.279Z,10.47
2022-10-06T02:07:28.753Z,4.20
2022-10-06T02:09:56.366Z,5.30
2022-10-06T02:12:23.871Z,8.33
2022-10-06T02:14:51.326Z,8.70
2022-10-06T02:17:18.744Z,3.80
2022-10-06T02:19:46.340Z,4.30
2022-10-06T02:22:13.815Z,5.27
2022-10-06T02:24:41.436Z,9.73
2022-10-06T02:27:09.132Z,4.83
2022-10-06T02:29:36.776Z,5.87
2022-10-06T02:32:04.210Z,9.50
2022-10-06T02:34:31.695Z,5.97
2022-10-06T02:36:59.305Z,5.73
2022-10-06T02:39:26.975Z,8.70
2022-10-06T02:41:54.465Z,4.57
2022-10-06T02:44:21.909Z,9.23
2022-10-06T02:46:49.485Z,8.83
2022-10-06T02:49:17.063Z,5.70
2022-10-06T02:51:44.530Z,7.23
2022-10-06T02:54:12.061Z,4.00
2022-10-06T02:56:39.528Z,11.10
2022-10-06T02:59:07.018Z,6.80
2022-10-06T03:01:34.629Z,7.87
2022-10-06T03:04:02.354Z,7.83
2022-10-06T03:06:31.047Z,9.63
2022-10-06T03:08:59.803Z,8.90
2022-10-06T03:11:28.416Z,12.10
2022-10-06T03:13:56.233Z,10.03
2022-10-06T03:16:23.786Z,6.43
2022-10-06T03:18:52.262Z,12.77
2022-10-06T03:21:20.582Z,8.97
2022-10-06T03:23:48.886Z,3.73
2022-10-06T03:26:17.246Z,9.50
2022-10-06T03:28:45.089Z,9.27
2022-10-06T03:31:13.184Z,9.80
2022-10-06T03:33:40.663Z,6.87
2022-10-06T03:36:10.697Z,11.53
2022-10-06T03:38:38.616Z,6.57
2022-10-06T03:41:25.618Z,10.20
2022-10-06T03:43:54.555Z,4.83
2022-10-06T03:46:26.884Z,7.87
2022-10-06T03:48:54.859Z,8.30
2022-10-06T03:51:23.669Z,6.50
2022-10-06T03:53:51.974Z,6.47
2022-10-06T03:56:19.431Z,9.53
2022-10-06T03:58:49.359Z,11.67
2022-10-06T04:01:23.512Z,9.30
2022-10-06T04:03:54.615Z,8.87
2022-10-06T04:06:22.398Z,11.83
2022-10-06T04:08:50.934Z,10.13
2022-10-06T04:11:19.952Z,8.00
2022-10-06T04:13:48.064Z,8.37
2022-10-06T04:16:17.889Z,11.03
2022-10-06T04:18:46.523Z,11.00
2022-10-06T04:21:14.262Z,16.97
2022-10-06T04:23:41.990Z,10.03
2022-10-06T04:26:12.762Z,8.37
2022-10-06T04:28:41.200Z,12.73
2022-10-06T04:31:13.592Z,6.37
2022-10-06T04:33:41.204Z,11.60
2022-10-06T04:36:09.006Z,11.00
2022-10-06T04:38:36.958Z,8.87
2022-10-06T04:41:17.753Z,14.30
2022-10-06T04:43:46.271Z,12.97
2022-10-06T04:46:41.010Z,11.33
2022-10-06T04:49:01.649Z,9.87
2022-10-06T04:51:29.322Z,12.33
2022-10-06T04:53:56.765Z,11.97
2022-10-06T04:56:28.341Z,11.57
2022-10-06T04:58:56.925Z,9.33
2022-10-06T05:01:25.632Z,11.50
2022-10-06T05:03:54.075Z,10.27
2022-10-06T05:06:22.855Z,10.63
2022-10-06T05:08:51.440Z,10.53
2022-10-06T05:11:22.447Z,14.20
2022-10-06T05:13:53.512Z,10.73
2022-10-06T05:16:21.455Z,12.87
2022-10-06T05:18:49.254Z,12.13
2022-10-06T05:21:21.621Z,13.20
2022-10-06T05:23:49.294Z,12.30
2022-10-06T05:26:18.261Z,8.57
2022-10-06T05:28:45.826Z,12.33
2022-10-06T05:31:19.742Z,12.43
2022-10-06T05:33:47.487Z,15.87
2022-10-06T05:36:16.461Z,9.30
2022-10-06T05:38:44.062Z,14.47
2022-10-06T05:41:12.513Z,13.77
2022-10-06T05:43:40.295Z,13.63
2022-10-06T05:46:09.290Z,17.30
2022-10-06T05:48:36.855Z,13.50
2022-10-06T05:51:08.515Z,17.83
2022-10-06T05:53:36.798Z,17.70
2022-10-06T05:56:04.235Z,13.17
2022-10-06T05:58:32.475Z,14.57
2022-10-06T06:01:06.937Z,14.90
2022-10-06T06:03:34.435Z,12.93
2022-10-06T06:06:02.063Z,17.80
2022-10-06T06:08:29.764Z,17.97
2022-10-06T06:11:05.648Z,18.73
2022-10-06T06:13:33.228Z,13.73
2022-10-06T06:16:01.394Z,9.37
2022-10-06T06:18:29.275Z,15.37
2022-10-06T06:20:57.975Z,11.97
2022-10-06T06:23:25.580Z,11.87
2022-10-06T06:26:02.470Z,15.53
2022-10-06T06:28:31.386Z,11.60
2022-10-06T06:31:20.281Z,21.20
2022-10-06T06:33:48.660Z,11.67
2022-10-06T06:36:16.155Z,11.10
2022-10-06T06:38:47.683Z,16.73
2022-10-06T06:41:28.897Z,20.13
2022-10-06T06:43:56.822Z,16.33
2022-10-06T06:46:25.691Z,13.00
2022-10-06T06:48:54.044Z,12.17
2022-10-06T06:51:22.121Z,15.70
2022-10-06T06:53:52.406Z,18.10
2022-10-06T06:56:20.552Z,20.57
2022-10-06T06:58:48.207Z,12.00
2022-10-06T07:01:16.837Z,17.33
2022-10-06T07:03:57.095Z,15.97
2022-10-06T07:06:28.180Z,11.40
2022-10-06T07:08:57.218Z,15.67
2022-10-06T07:11:24.707Z,16.27
2022-10-06T07:13:53.307Z,11.07
2022-10-06T07:16:21.654Z,14.27
2022-10-06T07:18:49.116Z,17.13
2022-10-06T07:21:16.571Z,20.93
2022-10-06T07:23:44.174Z,16.37
2022-10-06T07:26:11.648Z,13.63
2022-10-06T07:28:39.248Z,13.70
2022-10-06T07:31:06.937Z,12.93
2022-10-06T07:33:34.507Z,24.37
2022-10-06T07:36:03.155Z,13.87
2022-10-06T07:38:30.843Z,14.37
2022-10-06T07:43:46.459Z,17.07
2022-10-06T07:46:14.279Z,17.03
2022-10-06T07:48:42.094Z,16.30
2022-10-06T07:51:13.797Z,17.03
2022-10-06T07:53:41.512Z,13.27
2022-10-06T07:56:15.195Z,19.30
2022-10-06T07:58:42.661Z,11.87
2022-10-06T08:01:11.574Z,14.27
2022-10-06T08:03:39.557Z,14.03
2022-10-06T08:06:07.646Z,16.70
2022-10-06T08:08:35.354Z,19.93
2022-10-06T08:11:03.277Z,14.03
2022-10-06T08:13:31.156Z,14.17
2022-10-06T08:16:04.554Z,13.27
2022-10-06T08:18:46.052Z,13.97
2022-10-06T08:21:34.540Z,19.03
2022-10-06T08:24:02.045Z,11.13
2022-10-06T08:26:29.976Z,14.13
2022-10-06T08:28:57.789Z,9.47
2022-10-06T08:31:28.197Z,13.80
2022-10-06T08:33:56.442Z,13.73
2022-10-06T08:36:30.588Z,12.00
2022-10-06T08:38:59.183Z,21.03
2022-10-06T08:41:26.662Z,18.77
2022-10-06T08:44:17.484Z,9.87
2022-10-06T08:46:48.449Z,10.20
2022-10-06T08:49:18.244Z,13.70
2022-10-06T08:51:51.622Z,15.37
2022-10-06T08:54:22.192Z,14.27
2022-10-06T08:56:49.603Z,11.40
2022-10-06T08:59:19.248Z,13.30
2022-10-06T09:01:48.344Z,18.57
2022-10-06T09:04:20.883Z,12.63
2022-10-06T09:06:54.922Z,16.33
2022-10-06T09:09:41.129Z,13.00
2022-10-06T09:12:08.631Z,11.20
2022-10-06T09:14:40.333Z,14.27
2022-10-06T09:17:11.047Z,17.63
2022-10-06T09:19:42.057Z,14.67
2022-10-06T09:22:17.874Z,17.83
2022-10-06T09:24:47.583Z,14.90
2022-10-06T09:27:22.693Z,13.60
2022-10-06T09:29:51.204Z,14.20
2022-10-06T09:32:19.978Z,13.70
2022-10-06T09:34:50.074Z,12.50
2022-10-06T09:37:17.539Z,13.40
2022-10-06T09:39:46.697Z,14.43
2022-10-06T09:42:16.430Z,15.67
2022-10-06T09:45:03.069Z,16.87
2022-10-06T09:47:40.444Z,15.10
2022-10-06T09:50:13.954Z,12.97
2022-10-06T09:52:42.400Z,14.03
2022-10-06T09:55:14.440Z,12.57
2022-10-06T09:57:49.525Z,15.67
2022-10-06T10:00:30.242Z,15.33
2022-10-06T10:02:59.313Z,9.10
2022-10-06T10:05:27.384Z,15.53
2022-10-06T10:08:04.099Z,10.37
2022-10-06T10:10:31.584Z,13.03
2022-10-06T10:13:00.040Z,8.70
2022-10-06T10:15:29.002Z,14.20
2022-10-06T10:17:57.624Z,8.80
2022-10-06T10:20:25.159Z,9.20
2022-10-06T10:22:53.692Z,9.73
2022-10-06T10:25:33.561Z,9.90
2022-10-06T10:28:07.504Z,9.87
2022-10-06T10:30:40.546Z,15.00
2022-10-06T10:33:16.301Z,12.23
2022-10-06T10:35:47.870Z,7.33
2022-10-06T10:38:26.079Z,6.53
2022-10-06T10:41:02.071Z,8.63
2022-10-06T10:43:34.889Z,9.67
2022-10-06T10:46:05.380Z,7.97
2022-10-06T10:48:51.894Z,9.77
2022-10-06T10:51:25.434Z,12.70
2022-10-06T10:53:55.335Z,5.90
2022-10-06T10:56:24.490Z,9.43
2022-10-06T10:58:57.251Z,5.13
2022-10-06T11:01:46.208Z,7.30
2022-10-06T11:04:14.323Z,4.80
2022-10-06T11:06:44.553Z,7.43
2022-10-06T11:09:16.071Z,8.70
2022-10-06T11:11:51.382Z,10.37
2022-10-06T11:14:25.753Z,4.70
2022-10-06T11:16:53.502Z,5.27
2022-10-06T11:19:40.933Z,6.23
2022-10-06T11:22:08.499Z,6.97
2022-10-06T11:24:41.957Z,5.90
2022-10-06T11:27:09.530Z,8.80
2022-10-06T11:29:47.220Z,6.27
2022-10-06T11:32:31.569Z,5.23
2022-10-06T11:34:59.183Z,7.23
2022-10-06T11:37:47.129Z,6.17
2022-10-06T11:40:25.058Z,5.77
2022-10-06T11:43:02.095Z,5.10
2022-10-06T11:45:39.050Z,7.40
2022-10-06T11:48:24.049Z,7.70
2022-10-06T11:50:51.586Z,7.13
2022-10-06T11:53:28.207Z,6.37
2022-10-06T11:56:15.963Z,4.73
2022-10-06T11:59:09.861Z,6.23
2022-10-06T12:01:37.378Z,7.27
2022-10-06T12:04:10.879Z,5.40
2022-10-06T12:06:44.273Z,6.20
2022-10-06T12:09:27.886Z,3.63
2022-10-06T12:11:56.609Z,5.97
2022-10-06T12:17:34.260Z,4.97
2022-10-06T12:20:02.077Z,4.83
2022-10-06T12:22:32.854Z,9.90
2022-10-06T12:25:00.793Z,5.17
2022-10-06T12:27:43.971Z,11.00
2022-10-06T12:30:14.576Z,10.67
2022-10-06T12:32:58.388Z,6.53
2022-10-06T12:35:25.881Z,7.43
2022-10-06T12:37:54.864Z,3.83
2022-10-06T12:40:42.074Z,9.70
2022-10-06T12:43:15.716Z,7.70
2022-10-06T12:46:02.050Z,4.93
2022-10-06T12:49:05.164Z,4.50
2022-10-06T12:51:43.016Z,10.20
2022-10-06T12:54:15.202Z,3.10
2022-10-06T12:56:43.682Z,9.33
2022-10-06T12:59:18.011Z,10.07
2022-10-06T13:01:45.567Z,5.23
2022-10-06T13:04:31.981Z,6.33
2022-10-06T13:06:59.544Z,6.47
2022-10-06T13:09:27.056Z,5.00
2022-10-06T13:11:54.506Z,6.20
2022-10-06T13:14:22.041Z,4.07
2022-10-06T13:16:49.660Z,5.33
2022-10-06T13:19:24.934Z,6.63
2022-10-06T13:21:52.412Z,9.27
2022-10-06T13:24:24.504Z,6.70
2022-10-06T13:26:51.982Z,6.20
2022-10-06T13:29:21.076Z,4.30
2022-10-06T13:31:53.207Z,5.30
2022-10-06T13:34:29.384Z,7.87
2022-10-06T13:36:58.576Z,7.67
2022-10-06T13:39:27.489Z,9.30
2022-10-06T13:42:05.609Z,6.00
2022-10-06T13:44:40.633Z,6.40
2022-10-06T13:47:08.113Z,7.83
2022-10-06T13:49:42.640Z,7.13
2022-10-06T13:52:17.990Z,6.83
2022-10-06T13:54:56.359Z,3.73
2022-10-06T13:57:43.948Z,5.90
2022-10-06T14:00:22.134Z,3.70
2022-10-06T14:03:09.931Z,5.73
2022-10-06T14:05:38.579Z,4.67
2022-10-06T14:08:11.956Z,4.43
2022-10-06T14:10:42.535Z,5.07
2022-10-06T14:13:16.404Z,6.53
2022-10-06T14:15:51.459Z,6.07
2022-10-06T14:18:45.129Z,6.37
2022-10-06T14:21:31.574Z,5.80
2022-10-06T14:23:59.762Z,5.30
2022-10-06T14:26:32.090Z,9.17
2022-10-06T14:29:00.625Z,4.43
2022-10-06T14:31:29.068Z,21.63
2022-10-06T14:33:56.991Z,2.77
2022-10-06T14:36:25.926Z,4.87
2022-10-06T14:38:55.854Z,4.23
2022-10-06T14:41:27.341Z,7.90
2022-10-06T14:43:58.795Z,5.20
2022-10-06T14:46:26.277Z,2.43
2022-10-06T14:48:54.007Z,5.83
2022-10-06T14:51:22.199Z,8.60
2022-10-06T14:53:53.163Z,4.70
2022-10-06T14:56:21.484Z,3.00
2022-10-06T14:58:49.212Z,3.13
2022-10-06T15:01:17.278Z,3.97
2022-10-06T15:03:50.844Z,10.03
2022-10-06T15:06:18.422Z,6.33
2022-10-06T15:08:49.340Z,3.77
2022-10-06T15:11:16.959Z,5.43
2022-10-06T15:13:44.532Z,4.60
2022-10-06T15:16:12.292Z,3.00
2022-10-06T15:18:42.713Z,6.80
2022-10-06T15:21:11.221Z,8.17
2022-10-06T15:23:39.076Z,6.47
2022-10-06T15:26:06.891Z,3.83
2022-10-06T15:28:34.408Z,5.57
2022-10-06T15:31:01.965Z,4.27
2022-10-06T15:33:29.464Z,5.33
2022-10-06T15:36:26.195Z,5.80
2022-10-06T15:38:53.982Z,6.67
2022-10-06T15:41:22.143Z,7.27
2022-10-06T15:43:49.743Z,4.27
2022-10-06T15:46:17.474Z,6.63
2022-10-06T15:48:45.135Z,5.43
2022-10-06T15:51:12.591Z,3.90
2022-10-06T15:53:40.054Z,5.60
2022-10-06T15:56:07.679Z,4.90
2022-10-06T15:58:35.195Z,5.83
2022-10-06T16:01:02.691Z,4.57
2022-10-06T16:03:30.292Z,3.43
2022-10-06T16:05:57.783Z,5.77
2022-10-06T16:08:25.415Z,3.97
2022-10-06T16:10:52.892Z,5.97
2022-10-06T16:13:20.411Z,5.87
2022-10-06T16:15:57.589Z,6.73
2022-10-06T16:18:25.279Z,5.50
2022-10-06T16:20:56.448Z,4.93
2022-10-06T16:23:23.915Z,3.00
2022-10-06T16:25:51.477Z,4.20
2022-10-06T16:28:19.406Z,3.50
2022-10-06T16:30:56.478Z,5.20
2022-10-06T16:33:23.990Z,4.50
2022-10-06T16:35:55.022Z,2.57
2022-10-06T16:38:22.920Z,5.87
2022-10-06T16:40:54.197Z,2.50
2022-10-06T16:43:21.657Z,3.03
2022-10-06T16:46:02.119Z,5.00
2022-10-06T16:48:30.760Z,5.13
2022-10-06T16:51:03.997Z,7.07
2022-10-06T16:53:37.356Z,5.70
2022-10-06T16:56:05.819Z,5.53
2022-10-06T16:58:40.206Z,6.63
2022-10-06T17:01:08.083Z,7.33
2022-10-06T17:03:35.822Z,6.33
2022-10-06T17:06:04.127Z,5.70
2022-10-06T17:08:31.579Z,4.43
2022-10-06T17:11:03.240Z,3.30
2022-10-06T17:13:30.888Z,9.30
2022-10-06T17:15:59.202Z,10.07
2022-10-06T17:18:26.860Z,6.50
2022-10-06T17:20:58.181Z,6.13
2022-10-06T17:23:26.333Z,7.77
2022-10-06T17:26:07.608Z,12.43
2022-10-06T17:28:35.352Z,4.93
2022-10-06T17:31:02.885Z,8.63
2022-10-06T17:33:31.402Z,6.47
2022-10-06T17:36:03.468Z,6.23
2022-10-06T17:38:35.103Z,3.80
2022-10-06T17:41:03.056Z,7.50
2022-10-06T17:43:30.526Z,7.37
2022-10-06T17:45:58.205Z,8.00
2022-10-06T17:48:27.143Z,8.07
2022-10-06T17:50:58.867Z,5.60
2022-10-06T17:53:27.206Z,3.40
2022-10-06T17:55:56.634Z,3.83
2022-10-06T17:58:24.268Z,7.00
2022-10-06T18:00:53.206Z,5.40
2022-10-06T18:03:23.963Z,7.00
2022-10-06T18:05:54.767Z,8.27
2022-10-06T18:08:22.345Z,5.30
2022-10-06T18:10:49.950Z,3.37
2022-10-06T18:13:17.415Z,10.20
2022-10-06T18:15:44.971Z,9.17
2022-10-06T18:18:12.464Z,8.20
2022-10-06T18:20:40.023Z,4.63
2022-10-06T18:23:07.845Z,5.10
2022-10-06T18:25:37.714Z,4.10
2022-10-06T18:28:05.269Z,6.43
2022-10-06T18:30:33.730Z,3.87
2022-10-06T18:36:12.146Z,10.63
2022-10-06T18:38:41.953Z,6.37
2022-10-06T18:41:11.602Z,7.80
2022-10-06T18:43:39.246Z,11.27
2022-10-06T18:46:07.378Z,8.87
2022-10-06T18:48:35.066Z,8.03
2022-10-06T18:51:02.858Z,10.90
2022-10-06T18:53:30.322Z,4.47
2022-10-06T18:55:57.800Z,6.63
2022-10-06T18:58:25.321Z,10.87
2022-10-06T19:00:52.895Z,8.67
2022-10-06T19:03:20.408Z,8.63
2022-10-06T19:05:53.960Z,10.97
2022-10-06T19:08:21.459Z,7.67
2022-10-06T19:10:48.979Z,6.67
2022-10-06T19:13:16.470Z,6.60
2022-10-06T19:15:50.523Z,8.40
2022-10-06T19:18:18.130Z,8.53
2022-10-06T19:20:51.153Z,5.87
2022-10-06T19:23:18.651Z,8.40
2022-10-06T19:25:46.160Z,10.53
2022-10-06T19:28:13.633Z,9.50
2022-10-06T19:30:41.213Z,8.10
2022-10-06T19:33:08.797Z,7.60
2022-10-06T19:35:36.234Z,7.80
2022-10-06T19:38:03.756Z,8.70
2022-10-06T19:40:31.359Z,7.57
2022-10-06T19:42:58.798Z,8.00
2022-10-06T19:45:26.247Z,9.53
2022-10-06T19:47:53.780Z,6.77
2022-10-06T19:50:21.358Z,10.13
2022-10-06T19:52:48.801Z,10.90
2022-10-06T19:55:16.460Z,10.37
2022-10-06T19:57:45.182Z,8.10
2022-10-06T20:00:14.279Z,6.20
2022-10-06T20:02:43.159Z,12.63
2022-10-06T20:05:15.475Z,7.03
2022-10-06T20:07:47.301Z,13.27
2022-10-06T20:10:15.485Z,7.47
2022-10-06T20:12:43.090Z,9.07
2022-10-06T20:15:11.147Z,7.63
2022-10-06T20:17:38.733Z,9.27
2022-10-06T20:20:06.619Z,10.90
2022-10-06T20:22:34.063Z,12.20
2022-10-06T20:25:01.529Z,12.63
2022-10-06T20:27:29.070Z,10.13
2022-10-06T20:29:57.070Z,11.00
2022-10-06T20:32:24.631Z,9.80
2022-10-06T20:34:52.181Z,9.87
2022-10-06T20:37:19.751Z,7.27
2022-10-06T20:39:47.329Z,8.40
2022-10-06T20:42:15.648Z,10.60
2022-10-06T20:44:43.991Z,14.20
2022-10-06T20:47:12.277Z,9.60
2022-10-06T20:49:39.995Z,5.63
2022-10-06T20:52:07.559Z,9.33
2022-10-06T20:54:35.283Z,10.40
2022-10-06T20:57:04.686Z,10.37
2022-10-06T20:59:32.525Z,9.57
2022-10-06T21:02:00.342Z,7.77
2022-10-06T21:04:28.225Z,13.30
2022-10-06T21:07:04.771Z,5.37
2022-10-06T21:09:32.269Z,8.07
2022-10-06T21:11:59.721Z,12.63
2022-10-06T21:14:27.168Z,11.60
2022-10-06T21:16:54.602Z,7.23
2022-10-06T21:19:22.057Z,10.30
2022-10-06T21:21:49.900Z,13.30
2022-10-06T21:24:17.519Z,8.83
2022-10-06T21:26:44.953Z,11.23
2022-10-06T21:29:12.786Z,7.00
2022-10-06T21:31:40.319Z,11.00
2022-10-06T21:34:07.822Z,9.63
2022-10-06T21:36:35.266Z,10.97
2022-10-06T21:39:02.985Z,11.87
2022-10-06T21:41:32.021Z,7.83
2022-10-06T21:44:00.790Z,8.93
2022-10-06T21:46:48.544Z,10.50
2022-10-06T21:49:17.088Z,8.97
2022-10-06T21:51:45.654Z,8.13
2022-10-06T21:54:13.220Z,10.70
2022-10-06T21:56:40.717Z,9.93
2022-10-06T21:59:08.517Z,12.30
2022-10-06T22:01:37.207Z,7.53
2022-10-06T22:04:05.056Z,5.50
2022-10-06T22:06:33.734Z,11.53
2022-10-06T22:09:01.602Z,10.17
2022-10-06T22:11:30.614Z,10.87
2022-10-06T22:13:59.542Z,6.23
2022-10-06T22:16:28.130Z,14.77
2022-10-06T22:18:56.217Z,12.70
2022-10-06T22:21:25.170Z,10.47
2022-10-06T22:23:59.844Z,7.50
2022-10-06T22:26:28.377Z,6.40
2022-10-06T22:28:56.564Z,15.33
2022-10-06T22:31:26.323Z,6.33
2022-10-06T22:33:55.469Z,6.83
2022-10-06T22:36:23.434Z,11.53
2022-10-06T22:38:51.034Z,9.27
2022-10-06T22:41:18.497Z,10.83
2022-10-06T22:43:46.346Z,12.27
2022-10-06T22:46:14.608Z,10.53
2022-10-06T22:48:42.148Z,14.37
2022-10-06T22:51:10.007Z,10.83
2022-10-06T22:53:37.432Z,11.17
2022-10-06T22:56:05.000Z,12.10
2022-10-06T22:58:32.546Z,9.53
2022-10-06T23:01:08.568Z,11.00
2022-10-06T23:03:36.056Z,9.47
2022-10-06T23:06:03.579Z,11.53
2022-10-06T23:08:35.111Z,14.27
2022-10-06T23:11:10.280Z,7.23
2022-10-06T23:13:37.941Z,11.07
2022-10-06T23:16:08.096Z,14.67
2022-10-06T23:18:36.548Z,8.10
2022-10-06T23:21:07.838Z,9.47
2022-10-06T23:23:35.834Z,10.07
2022-10-06T23:26:04.208Z,13.63
2022-10-06T23:28:31.907Z,14.57
2022-10-06T23:30:59.401Z,10.13
2022-10-06T23:33:26.832Z,10.23
2022-10-06T23:36:01.042Z,11.40
2022-10-06T23:38:28.766Z,12.60
2022-10-06T23:40:56.224Z,9.53
2022-10-06T23:43:23.729Z,8.87
2022-10-06T23:45:51.290Z,12.20
2022-10-06T23:48:18.840Z,11.83
2022-10-06T23:50:59.019Z,8.47
2022-10-06T23:53:26.912Z,12.53
2022-10-06T23:55:54.664Z,8.50
2022-10-06T23:58:22.329Z,10.13
